PWSweather.com
Personal Weather Stations
Station Observations
KCOGRAND2
Redlands, Southcamp Road & Dakota Circle, Grand Junction, CO 81507

Redlands, Southcamp Road & Dakota CircleGrand Junction, CO 81507

Lat: 39.055, Lon: -108.637

Elevation: 4870

Station Type: RadioShack WX200

Latest ConditionsUpdated 4:28:50 AM MDT Wednesday, Sep 2, 2015
Currently Today's Max Today's Min Today's Average
Temperature 62.2°F16.8°C 69.4°F20.8°C 62.2°F16.8°C 65.7°F18.7°C
Dew Point 46.4°F8.0°C 47.1°F8.4°C 40.8°F4.9°C 44.1°F6.7°C
Winds Calm Calm 8.0 mph N12.9 kmh N - 3.8 mph 6.1 kmh
Wind Gusts 4.0 mph6.4 kmh 14.3 mph23.0 kmh - -
Humidity 56% 56% 36% 46%
Pressure 25.16 in852.0 mb 25.16 in852.0 mb 25.16 in852.0 mb -
Hour Temp Dew Point Humidity Winds Wind Gusts Pressure Precip Precip Rate Daily Precip Total
04:28 AM 62.2°F16.8°C 46.4°F8.0°C 56% Calm Calm 4.0 mph6.4 kmh 25.16 in852.0 mb 0.00 in0.0 mm 0.00 in0.0 mm 0.00 in0.0 mm
04:23 AM 62.8°F17.1°C 46.4°F8.0°C 55% Calm Calm -- 25.16 in852.0 mb 0.00 in0.0 mm 0.00 in0.0 mm 0.00 in0.0 mm
04:18 AM 63.0°F17.2°C 46.6°F8.1°C 55% 2.0 mph NNE3.2 kmh NNE 4.5 mph7.2 kmh 25.16 in852.0 mb 0.00 in0.0 mm 0.00 in0.0 mm 0.00 in0.0 mm
04:13 AM 63.1°F17.3°C 47.1°F8.4°C 56% 3.0 mph N4.8 kmh N 5.8 mph9.3 kmh 25.16 in852.0 mb 0.00 in0.0 mm 0.00 in0.0 mm 0.00 in0.0 mm
04:08 AM 62.2°F16.8°C 46.4°F8.0°C 56% 2.0 mph N3.2 kmh N 4.9 mph7.9 kmh 25.16 in852.0 mb 0.00 in0.0 mm 0.00 in0.0 mm 0.00 in0.0 mm
04:03 AM 62.6°F17.0°C 45.7°F7.6°C 54% 1.0 mph NNW1.6 kmh NNW 4.5 mph7.2 kmh 25.16 in852.0 mb 0.00 in0.0 mm 0.00 in0.0 mm 0.00 in0.0 mm
03:58 AM 63.0°F17.2°C 45.5°F7.5°C 53% 2.0 mph N3.2 kmh N 4.0 mph6.4 kmh 25.16 in852.0 mb 0.00 in0.0 mm 0.00 in0.0 mm 0.00 in0.0 mm
03:53 AM 63.5°F17.5°C 45.0°F7.2°C 51% 3.0 mph NNW4.8 kmh NNW 4.5 mph7.2 kmh 25.16 in852.0 mb 0.00 in0.0 mm 0.00 in0.0 mm 0.00 in0.0 mm
03:48 AM 63.7°F17.6°C 44.6°F7.0°C 50% 1.0 mph NNW1.6 kmh NNW 5.4 mph8.7 kmh 25.16 in852.0 mb 0.00 in0.0 mm 0.00 in0.0 mm 0.00 in0.0 mm
03:43 AM 64.6°F18.1°C 45.0°F7.2°C 49% 1.0 mph NNW1.6 kmh NNW 3.6 mph5.8 kmh 25.16 in852.0 mb 0.00 in0.0 mm 0.00 in0.0 mm 0.00 in0.0 mm
03:38 AM 64.8°F18.2°C 44.6°F7.0°C 48% 3.0 mph NNW4.8 kmh NNW 5.4 mph8.7 kmh 25.16 in852.0 mb 0.00 in0.0 mm 0.00 in0.0 mm 0.00 in0.0 mm
03:33 AM 64.6°F18.1°C 45.5°F7.5°C 50% 4.0 mph N6.4 kmh N 6.7 mph10.8 kmh 25.16 in852.0 mb 0.00 in0.0 mm 0.00 in0.0 mm 0.00 in0.0 mm
03:28 AM 64.2°F17.9°C 46.2°F7.9°C 52% 3.0 mph N4.8 kmh N 5.8 mph9.3 kmh 25.16 in852.0 mb 0.00 in0.0 mm 0.00 in0.0 mm 0.00 in0.0 mm
03:23 AM 63.1°F17.3°C 45.7°F7.6°C 53% 2.0 mph N3.2 kmh N 4.5 mph7.2 kmh 25.16 in852.0 mb 0.00 in0.0 mm 0.00 in0.0 mm 0.00 in0.0 mm
03:18 AM 63.9°F17.7°C 44.8°F7.1°C 50% 3.0 mph NNW4.8 kmh NNW 4.9 mph7.9 kmh 25.16 in852.0 mb 0.00 in0.0 mm 0.00 in0.0 mm 0.00 in0.0 mm
03:13 AM 64.9°F18.3°C 44.8°F7.1°C 48% 3.0 mph N4.8 kmh N 4.9 mph7.9 kmh 25.16 in852.0 mb 0.00 in0.0 mm 0.00 in0.0 mm 0.00 in0.0 mm
03:08 AM 64.9°F18.3°C 45.3°F7.4°C 49% 2.0 mph NE3.2 kmh NE 4.9 mph7.9 kmh 25.16 in852.0 mb 0.00 in0.0 mm 0.00 in0.0 mm 0.00 in0.0 mm
03:03 AM 64.4°F18.0°C 45.3°F7.4°C 50% 2.0 mph NE3.2 kmh NE 5.4 mph8.7 kmh 25.16 in852.0 mb 0.00 in0.0 mm 0.00 in0.0 mm 0.00 in0.0 mm
02:58 AM 64.4°F18.0°C 45.9°F7.7°C 51% 2.0 mph NE3.2 kmh NE 5.4 mph8.7 kmh 25.16 in852.0 mb 0.00 in0.0 mm 0.00 in0.0 mm 0.00 in0.0 mm
02:53 AM 64.0°F17.8°C 46.0°F7.8°C 52% 3.0 mph NE4.8 kmh NE 4.9 mph7.9 kmh 25.16 in852.0 mb 0.00 in0.0 mm 0.00 in0.0 mm 0.00 in0.0 mm
02:48 AM 63.7°F17.6°C 46.2°F7.9°C 53% 4.0 mph NE6.4 kmh NE 5.8 mph9.3 kmh 25.16 in852.0 mb 0.00 in0.0 mm 0.00 in0.0 mm 0.00 in0.0 mm
02:43 AM 63.7°F17.6°C 46.2°F7.9°C 53% 4.0 mph NE6.4 kmh NE 6.3 mph10.1 kmh 25.16 in852.0 mb 0.00 in0.0 mm 0.00 in0.0 mm 0.00 in0.0 mm
02:38 AM 63.5°F17.5°C 46.0°F7.8°C 53% 3.0 mph NE4.8 kmh NE 6.3 mph10.1 kmh 25.16 in852.0 mb 0.00 in0.0 mm 0.00 in0.0 mm 0.00 in0.0 mm
02:33 AM 64.2°F17.9°C 46.2°F7.9°C 52% 1.0 mph ENE1.6 kmh ENE 5.8 mph9.3 kmh 25.16 in852.0 mb 0.00 in0.0 mm 0.00 in0.0 mm 0.00 in0.0 mm
02:23 AM 64.0°F17.8°C 45.5°F7.5°C 51% 2.0 mph NE3.2 kmh NE 4.5 mph7.2 kmh 25.16 in852.0 mb 0.00 in0.0 mm 0.00 in0.0 mm 0.00 in0.0 mm
02:18 AM 64.2°F17.9°C 45.1°F7.3°C 50% 1.0 mph NNE1.6 kmh NNE 5.4 mph8.7 kmh 25.16 in852.0 mb 0.00 in0.0 mm 0.00 in0.0 mm 0.00 in0.0 mm
02:13 AM 64.4°F18.0°C 45.3°F7.4°C 50% Calm Calm 5.4 mph8.7 kmh 25.16 in852.0 mb 0.00 in0.0 mm 0.00 in0.0 mm 0.00 in0.0 mm
02:08 AM 64.8°F18.2°C 44.6°F7.0°C 48% Calm Calm 3.6 mph5.8 kmh 25.16 in852.0 mb 0.00 in0.0 mm 0.00 in0.0 mm 0.00 in0.0 mm
02:03 AM 64.8°F18.2°C 44.6°F7.0°C 48% 1.0 mph NW1.6 kmh NW 3.6 mph5.8 kmh 25.16 in852.0 mb 0.00 in0.0 mm 0.00 in0.0 mm 0.00 in0.0 mm
01:58 AM 65.5°F18.6°C 44.1°F6.7°C 46% 3.0 mph NW4.8 kmh NW 4.9 mph7.9 kmh 25.16 in852.0 mb 0.00 in0.0 mm 0.00 in0.0 mm 0.00 in0.0 mm
01:53 AM 66.0°F18.9°C 44.1°F6.7°C 45% 4.0 mph NW6.4 kmh NW 5.4 mph8.7 kmh 25.16 in852.0 mb 0.00 in0.0 mm 0.00 in0.0 mm 0.00 in0.0 mm
01:48 AM 66.4°F19.1°C 43.9°F6.6°C 44% 5.0 mph NW8.0 kmh NW 7.4 mph11.9 kmh 25.16 in852.0 mb 0.00 in0.0 mm 0.00 in0.0 mm 0.00 in0.0 mm
01:43 AM 66.7°F19.3°C 43.5°F6.4°C 43% 5.0 mph NW8.0 kmh NW 8.3 mph13.4 kmh 25.16 in852.0 mb 0.00 in0.0 mm 0.00 in0.0 mm 0.00 in0.0 mm
01:38 AM 66.9°F19.4°C 43.2°F6.2°C 42% 5.0 mph NNW8.0 kmh NNW 6.3 mph10.1 kmh 25.16 in852.0 mb 0.00 in0.0 mm 0.00 in0.0 mm 0.00 in0.0 mm
01:33 AM 67.3°F19.6°C 42.8°F6.0°C 41% 6.0 mph N9.7 kmh N 8.3 mph13.4 kmh 25.16 in852.0 mb 0.00 in0.0 mm 0.00 in0.0 mm 0.00 in0.0 mm
01:28 AM 67.5°F19.7°C 43.0°F6.1°C 41% 7.0 mph N11.3 kmh N 10.1 mph16.3 kmh 25.16 in852.0 mb 0.00 in0.0 mm 0.00 in0.0 mm 0.00 in0.0 mm
01:23 AM 67.8°F19.9°C 42.6°F5.9°C 40% 7.0 mph NNW11.3 kmh NNW 9.6 mph15.4 kmh 25.16 in852.0 mb 0.00 in0.0 mm 0.00 in0.0 mm 0.00 in0.0 mm
01:18 AM 67.6°F19.8°C 41.7°F5.4°C 39% 7.0 mph NNW11.3 kmh NNW 9.2 mph14.8 kmh 25.16 in852.0 mb 0.00 in0.0 mm 0.00 in0.0 mm 0.00 in0.0 mm
01:13 AM 67.6°F19.8°C 41.7°F5.4°C 39% 7.0 mph N11.3 kmh N 9.2 mph14.8 kmh 25.16 in852.0 mb 0.00 in0.0 mm 0.00 in0.0 mm 0.00 in0.0 mm
01:08 AM 68.0°F20.0°C 41.4°F5.2°C 38% 8.0 mph N12.9 kmh N 10.1 mph16.3 kmh 25.16 in852.0 mb 0.00 in0.0 mm 0.00 in0.0 mm 0.00 in0.0 mm
01:03 AM 68.4°F20.2°C 41.0°F5.0°C 37% 7.0 mph N11.3 kmh N 12.1 mph19.5 kmh 25.16 in852.0 mb 0.00 in0.0 mm 0.00 in0.0 mm 0.00 in0.0 mm
12:58 AM 68.5°F20.3°C 41.2°F5.1°C 37% 7.0 mph N11.3 kmh N 9.6 mph15.4 kmh 25.16 in852.0 mb 0.00 in0.0 mm 0.00 in0.0 mm 0.00 in0.0 mm
12:53 AM 68.9°F20.5°C 40.8°F4.9°C 36% 7.0 mph N11.3 kmh N 12.5 mph20.1 kmh 25.16 in852.0 mb 0.00 in0.0 mm 0.00 in0.0 mm 0.00 in0.0 mm
12:48 AM 68.7°F20.4°C 41.4°F5.2°C 37% 6.0 mph N9.7 kmh N 12.5 mph20.1 kmh 25.16 in852.0 mb 0.00 in0.0 mm 0.00 in0.0 mm 0.00 in0.0 mm
12:43 AM 68.9°F20.5°C 41.5°F5.3°C 37% 6.0 mph N9.7 kmh N 9.6 mph15.4 kmh 25.16 in852.0 mb 0.00 in0.0 mm 0.00 in0.0 mm 0.00 in0.0 mm
12:38 AM 68.9°F20.5°C 41.5°F5.3°C 37% 6.0 mph N9.7 kmh N 8.3 mph13.4 kmh 25.16 in852.0 mb 0.00 in0.0 mm 0.00 in0.0 mm 0.00 in0.0 mm
12:27 AM 69.3°F20.7°C 41.2°F5.1°C 36% 8.0 mph N12.9 kmh N 11.6 mph18.7 kmh 25.16 in852.0 mb 0.00 in0.0 mm 0.00 in0.0 mm 0.00 in0.0 mm
12:22 AM 69.3°F20.7°C 41.2°F5.1°C 36% 8.0 mph N12.9 kmh N 14.3 mph23.0 kmh 25.16 in852.0 mb 0.00 in0.0 mm 0.00 in0.0 mm 0.00 in0.0 mm
12:17 AM 69.4°F20.8°C 42.1°F5.6°C 37% 7.0 mph NNW11.3 kmh NNW 13.9 mph22.4 kmh 25.16 in852.0 mb 0.00 in0.0 mm 0.00 in0.0 mm 0.00 in0.0 mm
12:12 AM 69.1°F20.6°C 42.4°F5.8°C 38% 5.0 mph NW8.0 kmh NW 11.6 mph18.7 kmh 25.16 in852.0 mb 0.00 in0.0 mm 0.00 in0.0 mm 0.00 in0.0 mm
12:07 AM 68.5°F20.3°C 43.3°F6.3°C 40% 4.0 mph NW6.4 kmh NW 4.9 mph7.9 kmh 25.16 in852.0 mb 0.00 in0.0 mm 0.00 in0.0 mm 0.00 in0.0 mm
12:02 AM 68.7°F20.4°C 43.3°F6.3°C 40% 4.0 mph NNW6.4 kmh NNW 6.3 mph10.1 kmh 25.16 in852.0 mb 0.00 in0.0 mm 0.00 in0.0 mm 0.00 in0.0 mm